createdAt,value
2023-05-15T00:00:10.799Z,99691.88
2023-05-15T00:02:38.988Z,99701.16
2023-05-15T00:05:08.419Z,99695.44
2023-05-15T00:07:36.595Z,99704.97
2023-05-15T00:10:06.789Z,99716.44
2023-05-15T00:12:34.742Z,99697.28
2023-05-15T00:15:02.629Z,99686.38
2023-05-15T00:17:30.614Z,99679.84
2023-05-15T00:19:59.850Z,99663.06
2023-05-15T00:22:27.823Z,99665.16
2023-05-15T00:24:55.798Z,99664.66
2023-05-15T00:27:25.038Z,99657.56
2023-05-15T00:29:52.973Z,99658.91
2023-05-15T00:32:20.977Z,99668.91
2023-05-15T00:34:48.933Z,99665.13
2023-05-15T00:37:16.851Z,99664.78
2023-05-15T00:39:44.754Z,99665.50
2023-05-15T00:42:12.654Z,99665.72
2023-05-15T00:44:42.261Z,99665.28
2023-05-15T00:47:10.616Z,99646.06
2023-05-15T00:49:38.943Z,99653.06
2023-05-15T00:52:08.525Z,99661.34
2023-05-15T00:54:36.462Z,99657.13
2023-05-15T00:57:05.218Z,99663.56
2023-05-15T00:59:33.141Z,99663.78
2023-05-15T01:02:02.478Z,99656.34
2023-05-15T01:04:30.466Z,99644.63
2023-05-15T01:06:58.368Z,99627.19
2023-05-15T01:09:26.284Z,99624.09
2023-05-15T01:11:55.339Z,99620.19
2023-05-15T01:14:23.280Z,99612.00
2023-05-15T01:16:51.511Z,99611.81
2023-05-15T01:19:20.902Z,99592.09
2023-05-15T01:22:43.296Z,99589.84
2023-05-15T01:25:35.414Z,99571.50
2023-05-15T01:28:04.975Z,99581.72
2023-05-15T01:30:35.523Z,99589.84
2023-05-15T01:33:05.561Z,99589.13
2023-05-15T01:35:35.774Z,99584.56
2023-05-15T01:38:10.295Z,99577.03
2023-05-15T01:40:38.251Z,99603.88
2023-05-15T01:43:09.897Z,99608.56
2023-05-15T01:45:37.901Z,99614.41
2023-05-15T01:48:07.992Z,99612.66
2023-05-15T01:50:36.093Z,99615.53
2023-05-15T01:53:03.968Z,99616.34
2023-05-15T01:55:31.883Z,99609.19
2023-05-15T01:57:59.881Z,99606.03
2023-05-15T02:00:29.796Z,99616.94
2023-05-15T02:02:57.854Z,99615.06
2023-05-15T02:05:26.068Z,99614.16
2023-05-15T02:07:54.235Z,99608.66
2023-05-15T02:10:22.465Z,99596.81
2023-05-15T02:12:50.467Z,99598.44
2023-05-15T02:15:18.483Z,99590.91
2023-05-15T02:17:47.842Z,99593.78
2023-05-15T02:20:15.821Z,99591.28
2023-05-15T02:22:43.764Z,99594.53
2023-05-15T02:25:11.696Z,99603.03
2023-05-15T02:27:43.115Z,99604.34
2023-05-15T02:30:17.773Z,99620.97
2023-05-15T02:32:51.691Z,99609.91
2023-05-15T02:35:22.776Z,99608.03
2023-05-15T02:37:52.236Z,99627.25
2023-05-15T02:40:20.146Z,99617.69
2023-05-15T02:42:48.309Z,99608.72
2023-05-15T02:45:16.222Z,99590.56
2023-05-15T02:47:44.153Z,99595.66
2023-05-15T02:50:13.588Z,99599.44
2023-05-15T02:52:41.469Z,99591.75
2023-05-15T02:55:10.721Z,99594.06
2023-05-15T02:57:38.640Z,99596.66
2023-05-15T03:00:10.662Z,99593.72
2023-05-15T03:02:38.905Z,99614.91
2023-05-15T03:05:07.858Z,99599.69
2023-05-15T03:07:37.575Z,99607.22
2023-05-15T03:10:06.164Z,99603.88
2023-05-15T03:12:34.113Z,99606.47
2023-05-15T03:15:02.328Z,99601.88
2023-05-15T03:17:30.353Z,99589.13
2023-05-15T03:19:58.509Z,99592.28
2023-05-15T03:22:26.467Z,99593.53
2023-05-15T03:24:56.059Z,99591.44
2023-05-15T03:27:23.932Z,99577.25
2023-05-15T03:29:51.881Z,99571.00
2023-05-15T03:32:19.780Z,99580.78
2023-05-15T03:34:47.682Z,99591.53
2023-05-15T03:37:15.610Z,99591.25
2023-05-15T03:39:43.528Z,99588.19
2023-05-15T03:42:12.842Z,99583.69
2023-05-15T03:44:41.325Z,99580.06
2023-05-15T03:47:09.259Z,99599.38
2023-05-15T03:49:37.163Z,99608.56
2023-05-15T03:52:05.407Z,99604.38
2023-05-15T03:54:33.359Z,99588.06
2023-05-15T03:57:01.329Z,99593.84
2023-05-15T03:59:31.193Z,99598.25
2023-05-15T04:02:04.950Z,99608.00
2023-05-15T04:04:33.693Z,99602.34
2023-05-15T04:07:01.610Z,99612.59
2023-05-15T04:09:29.511Z,99610.94
2023-05-15T04:11:57.477Z,99612.91
2023-05-15T04:14:25.400Z,99603.03
2023-05-15T04:16:54.730Z,99602.31
2023-05-15T04:19:22.684Z,99581.91
2023-05-15T04:21:50.771Z,99599.66
2023-05-15T04:24:18.669Z,99606.19
2023-05-15T04:26:46.694Z,99604.22
2023-05-15T04:29:14.722Z,99607.81
2023-05-15T04:31:42.726Z,99598.72
2023-05-15T04:34:12.078Z,99607.06
2023-05-15T04:36:40.801Z,99605.66
2023-05-15T04:39:10.715Z,99591.72
2023-05-15T04:41:38.620Z,99597.44
2023-05-15T04:44:06.794Z,99591.75
2023-05-15T04:46:37.437Z,99600.19
2023-05-15T04:49:06.767Z,99604.09
2023-05-15T04:51:36.192Z,99602.28
2023-05-15T04:54:04.268Z,99586.53
2023-05-15T04:56:32.811Z,99589.84
2023-05-15T04:59:01.187Z,99588.94
2023-05-15T05:01:29.587Z,99599.22
2023-05-15T05:03:57.591Z,99604.09
2023-05-15T05:06:25.666Z,99598.16
2023-05-15T05:08:54.955Z,99602.91
2023-05-15T05:11:22.920Z,99617.84
2023-05-15T05:13:50.954Z,99623.00
2023-05-15T05:16:18.962Z,99623.00
2023-05-15T05:18:46.937Z,99636.53
2023-05-15T05:21:14.844Z,99643.59
2023-05-15T05:23:42.744Z,99635.81
2023-05-15T05:26:12.001Z,99618.00
2023-05-15T05:28:39.953Z,99613.84
2023-05-15T05:31:08.581Z,99608.72
2023-05-15T05:33:36.604Z,99603.25
2023-05-15T05:36:05.265Z,99601.03
2023-05-15T05:38:33.458Z,99600.06
2023-05-15T05:41:01.671Z,99610.13
2023-05-15T05:43:31.464Z,99608.72
2023-05-15T05:45:59.470Z,99611.50
2023-05-15T05:48:27.558Z,99614.84
2023-05-15T05:50:55.804Z,99615.34
2023-05-15T05:53:23.754Z,99614.94
2023-05-15T05:55:51.666Z,99621.53
2023-05-15T05:58:25.403Z,99632.44
2023-05-15T06:00:55.606Z,99622.63
2023-05-15T06:03:24.230Z,99622.25
2023-05-15T06:05:52.987Z,99616.97
2023-05-15T06:08:20.937Z,99618.31
2023-05-15T06:10:49.090Z,99632.88
2023-05-15T06:13:17.477Z,99594.41
2023-05-15T06:15:46.452Z,99630.66
2023-05-15T06:18:15.726Z,99619.00
2023-05-15T06:20:43.810Z,99615.13
2023-05-15T06:23:11.760Z,99622.13
2023-05-15T06:25:39.730Z,99606.09
2023-05-15T06:28:07.904Z,99610.06
2023-05-15T06:30:35.855Z,99616.34
2023-05-15T06:33:03.877Z,99614.72
2023-05-15T06:35:33.144Z,99594.13
2023-05-15T06:38:02.017Z,99593.97
2023-05-15T06:40:30.052Z,99595.56
2023-05-15T06:42:58.784Z,99596.22
2023-05-15T06:45:27.321Z,99600.25
2023-05-15T06:47:55.657Z,99613.28
2023-05-15T06:50:23.880Z,99602.59
2023-05-15T06:52:53.159Z,99606.56
2023-05-15T06:55:21.216Z,99593.78
2023-05-15T06:57:49.140Z,99596.00
2023-05-15T07:00:17.834Z,99597.25
2023-05-15T07:02:45.835Z,99593.47
2023-05-15T07:05:15.085Z,99595.41
2023-05-15T07:07:43.256Z,99607.97
2023-05-15T07:10:12.789Z,99609.06
2023-05-15T07:12:40.686Z,99604.34
2023-05-15T07:15:09.433Z,99593.22
2023-05-15T07:17:37.517Z,99591.22
2023-05-15T07:20:06.889Z,99584.78
2023-05-15T07:22:41.545Z,99581.47
2023-05-15T07:25:17.799Z,99594.38
2023-05-15T07:27:45.791Z,99596.75
2023-05-15T07:30:14.652Z,99589.34
2023-05-15T07:32:42.531Z,99583.22
2023-05-15T07:35:12.202Z,99571.06
2023-05-15T07:37:40.140Z,99574.78
2023-05-15T07:40:09.202Z,99575.00
2023-05-15T07:42:39.741Z,99569.69
2023-05-15T07:45:08.945Z,99568.38
2023-05-15T07:47:36.998Z,99561.16
2023-05-15T07:50:05.334Z,99560.16
2023-05-15T07:52:33.250Z,99565.91
2023-05-15T07:55:01.334Z,99559.06
2023-05-15T07:57:29.298Z,99572.25
2023-05-15T07:59:58.585Z,99566.38
2023-05-15T08:02:26.756Z,99564.66
2023-05-15T08:04:54.764Z,99562.31
2023-05-15T08:07:22.778Z,99561.97
2023-05-15T08:09:50.918Z,99557.50
2023-05-15T08:12:21.010Z,99552.97
2023-05-15T08:14:50.355Z,99551.25
2023-05-15T08:17:19.644Z,99545.41
2023-05-15T08:19:47.564Z,99540.38
2023-05-15T08:22:15.548Z,99533.31
2023-05-15T08:24:43.554Z,99540.78
2023-05-15T08:27:11.446Z,99539.44
2023-05-15T08:29:39.829Z,99524.16
2023-05-15T08:32:08.331Z,99526.78
2023-05-15T08:34:38.820Z,99533.47
2023-05-15T08:37:07.500Z,99530.31
2023-05-15T08:39:35.449Z,99530.78
2023-05-15T08:42:09.394Z,99526.31
2023-05-15T08:44:37.728Z,99536.03
2023-05-15T08:47:06.493Z,99536.47
2023-05-15T08:49:42.271Z,99528.78
2023-05-15T08:52:10.334Z,99544.72
2023-05-15T08:54:39.141Z,99534.41
2023-05-15T08:57:07.263Z,99541.81
2023-05-15T08:59:35.152Z,99546.94
2023-05-15T09:02:03.236Z,99556.91
2023-05-15T09:04:31.220Z,99560.22
2023-05-15T09:07:02.105Z,99567.16
2023-05-15T09:09:30.816Z,99563.22
2023-05-15T09:11:58.673Z,99567.44
2023-05-15T09:14:26.716Z,99561.16
2023-05-15T09:16:54.613Z,99568.16
2023-05-15T09:19:23.078Z,99567.44
2023-05-15T09:21:51.038Z,99564.25
2023-05-15T09:24:21.702Z,99552.88
2023-05-15T09:27:02.416Z,99554.91
2023-05-15T09:29:31.153Z,99550.56
2023-05-15T09:31:59.150Z,99550.72
2023-05-15T09:34:31.012Z,99550.91
2023-05-15T09:36:59.009Z,99559.59
2023-05-15T09:39:28.285Z,99543.84
2023-05-15T09:41:56.167Z,99542.31
2023-05-15T09:44:26.227Z,99529.03
2023-05-15T09:46:54.214Z,99524.59
2023-05-15T09:49:23.301Z,99526.44
2023-05-15T09:51:51.786Z,99523.81
2023-05-15T09:54:19.982Z,99521.34
2023-05-15T09:56:49.241Z,99516.88
2023-05-15T09:59:18.368Z,99518.00
2023-05-15T10:01:46.760Z,99511.84
2023-05-15T10:04:14.909Z,99510.00
2023-05-15T10:06:43.597Z,99514.47
2023-05-15T10:09:11.754Z,99510.38
2023-05-15T10:11:40.919Z,99505.63
2023-05-15T10:14:10.964Z,99509.22
2023-05-15T10:16:39.831Z,99497.06
2023-05-15T10:19:08.297Z,99498.03
2023-05-15T10:21:36.810Z,99498.81
2023-05-15T10:24:05.580Z,99499.09
2023-05-15T10:26:38.093Z,99488.47
2023-05-15T10:29:06.938Z,99505.47
2023-05-15T10:31:36.960Z,99490.88
2023-05-15T10:34:05.138Z,99488.28
2023-05-15T10:36:33.144Z,99490.44
2023-05-15T10:39:01.309Z,99494.97
2023-05-15T10:41:30.153Z,99493.41
2023-05-15T10:43:59.647Z,99492.28
2023-05-15T10:46:27.773Z,99504.13
2023-05-15T10:48:57.108Z,99499.53
2023-05-15T10:51:28.647Z,99490.16
2023-05-15T10:53:57.042Z,99483.44
2023-05-15T10:56:27.668Z,99485.69
2023-05-15T10:58:56.451Z,99488.50
2023-05-15T11:01:28.598Z,99484.28
2023-05-15T11:04:13.938Z,99490.38
2023-05-15T11:06:42.538Z,99491.53
2023-05-15T11:09:35.694Z,99491.84
2023-05-15T11:12:04.070Z,99485.66
2023-05-15T11:14:32.330Z,99482.00
2023-05-15T11:17:01.389Z,99485.47
2023-05-15T11:19:44.393Z,99480.47
2023-05-15T11:22:19.563Z,99481.75
2023-05-15T11:24:52.384Z,99482.75
2023-05-15T11:27:21.439Z,99484.63
2023-05-15T11:30:09.028Z,99475.44
2023-05-15T11:33:01.528Z,99461.84
2023-05-15T11:35:31.457Z,99479.69
2023-05-15T11:38:00.329Z,99475.94
2023-05-15T11:40:29.428Z,99479.78
2023-05-15T11:43:05.394Z,99470.53
2023-05-15T11:45:34.285Z,99472.16
2023-05-15T11:48:03.614Z,99475.31
2023-05-15T11:50:33.824Z,99467.44
2023-05-15T11:53:05.562Z,99467.47
2023-05-15T11:55:34.308Z,99473.03
2023-05-15T11:58:02.254Z,99474.97
2023-05-15T12:00:30.130Z,99469.72
2023-05-15T12:02:58.188Z,99462.66
2023-05-15T12:05:26.182Z,99452.75
2023-05-15T12:07:55.549Z,99458.41
2023-05-15T12:10:23.603Z,99463.50
2023-05-15T12:12:51.618Z,99457.09
2023-05-15T12:15:19.517Z,99456.56
2023-05-15T12:17:47.443Z,99451.03
2023-05-15T12:20:17.766Z,99446.63
2023-05-15T12:22:45.757Z,99443.31
2023-05-15T12:25:16.081Z,99433.47
2023-05-15T12:27:44.041Z,99426.13
2023-05-15T12:30:12.394Z,99437.44
2023-05-15T12:32:40.390Z,99445.78
2023-05-15T12:35:08.801Z,99444.66
2023-05-15T12:37:36.930Z,99433.19
2023-05-15T12:40:10.081Z,99445.88
2023-05-15T12:42:43.083Z,99457.47
2023-05-15T12:45:15.283Z,99450.91
2023-05-15T12:47:43.814Z,99445.78
2023-05-15T12:50:16.172Z,99440.28
2023-05-15T12:52:53.776Z,99449.28
2023-05-15T12:55:24.259Z,99444.06
2023-05-15T12:57:53.793Z,99452.22
2023-05-15T13:00:22.819Z,99467.38
2023-05-15T13:02:51.775Z,99454.44
2023-05-15T13:05:19.935Z,99447.41
2023-05-15T13:07:47.834Z,99424.50
2023-05-15T13:10:15.811Z,99428.53
2023-05-15T13:12:44.781Z,99436.78
2023-05-15T13:15:26.302Z,99456.56
2023-05-15T13:17:57.544Z,99450.47
2023-05-15T13:20:25.672Z,99456.91
2023-05-15T13:22:53.759Z,99467.06
2023-05-15T13:25:21.775Z,99448.63
2023-05-15T13:27:50.048Z,99466.50
2023-05-15T13:30:18.296Z,99447.94
2023-05-15T13:32:47.560Z,99451.41
2023-05-15T13:35:15.553Z,99431.97
2023-05-15T13:37:43.473Z,99431.84
2023-05-15T13:40:12.178Z,99431.69
2023-05-15T13:42:40.578Z,99439.13
2023-05-15T13:45:09.197Z,99452.84
2023-05-15T13:47:39.403Z,99468.66
2023-05-15T13:50:10.283Z,99481.00
2023-05-15T13:52:38.564Z,99475.22
2023-05-15T13:55:09.536Z,99484.22
2023-05-15T13:57:37.476Z,99475.13
2023-05-15T14:00:07.400Z,99478.19
2023-05-15T14:02:35.434Z,99478.66
2023-05-15T14:05:04.711Z,99484.25
2023-05-15T14:07:34.001Z,99487.13
2023-05-15T14:10:01.892Z,99472.91
2023-05-15T14:12:29.903Z,99458.25
2023-05-15T14:14:58.463Z,99448.28
2023-05-15T14:17:26.398Z,99450.41
2023-05-15T14:19:54.390Z,99443.06
2023-05-15T14:22:24.976Z,99448.00
2023-05-15T14:24:54.551Z,99448.09
2023-05-15T14:27:22.521Z,99438.03
2023-05-15T14:29:51.240Z,99427.13
2023-05-15T14:32:19.204Z,99416.13
2023-05-15T14:34:47.162Z,99397.66
2023-05-15T14:37:15.131Z,99380.19
2023-05-15T14:39:43.399Z,99370.63
2023-05-15T14:42:12.975Z,99371.28
2023-05-15T14:44:40.932Z,99372.72
2023-05-15T14:47:09.194Z,99355.41
2023-05-15T14:49:37.777Z,99341.56
2023-05-15T14:52:07.739Z,99356.50
2023-05-15T14:54:35.753Z,99372.44
2023-05-15T14:57:03.754Z,99389.31
2023-05-15T14:59:33.037Z,99408.19
2023-05-15T15:02:01.106Z,99417.50
2023-05-15T15:04:30.611Z,99419.53
2023-05-15T15:06:58.626Z,99424.38
2023-05-15T15:09:28.937Z,99434.00
2023-05-15T15:11:57.029Z,99434.50
2023-05-15T15:14:24.949Z,99441.53
2023-05-15T15:16:54.234Z,99431.31
2023-05-15T15:19:22.195Z,99423.66
2023-05-15T15:21:50.134Z,99416.84
2023-05-15T15:24:18.068Z,99421.34
2023-05-15T15:26:45.999Z,99430.06
2023-05-15T15:29:13.900Z,99427.81
2023-05-15T15:31:41.807Z,99416.78
2023-05-15T15:34:11.348Z,99415.16
2023-05-15T15:36:41.510Z,99412.63
2023-05-15T15:39:09.832Z,99421.53
2023-05-15T15:41:38.500Z,99421.53
2023-05-15T15:44:06.645Z,99424.06
2023-05-15T15:46:34.485Z,99417.47
2023-05-15T15:49:03.906Z,99414.28
2023-05-15T15:51:34.573Z,99411.22
2023-05-15T15:54:02.456Z,99406.00
2023-05-15T15:56:30.332Z,99410.19
2023-05-15T15:58:58.348Z,99397.69
2023-05-15T16:01:26.373Z,99390.06
2023-05-15T16:03:54.351Z,99406.53
2023-05-15T16:06:22.323Z,99408.81
2023-05-15T16:08:52.080Z,99403.34
2023-05-15T16:13:47.926Z,99381.16
2023-05-15T16:16:15.852Z,99375.69
2023-05-15T16:18:44.671Z,99374.88
2023-05-15T16:21:13.000Z,99376.50
2023-05-15T16:23:41.413Z,99360.09
2023-05-15T16:26:10.994Z,99388.09
2023-05-15T16:28:38.940Z,99391.41
2023-05-15T16:31:07.002Z,99393.59
2023-05-15T16:33:34.997Z,99400.75
2023-05-15T16:36:05.098Z,99394.75
2023-05-15T16:38:33.180Z,99397.47
2023-05-15T16:41:01.551Z,99401.03
2023-05-15T16:43:31.059Z,99399.06
2023-05-15T16:45:59.032Z,99399.63
2023-05-15T16:48:27.954Z,99404.00
2023-05-15T16:50:55.972Z,99401.81
2023-05-15T16:53:24.039Z,99406.19
2023-05-15T16:55:52.051Z,99414.13
2023-05-15T16:58:20.225Z,99413.81
2023-05-15T17:00:50.270Z,99415.97
2023-05-15T17:03:19.062Z,99413.72
2023-05-15T17:05:47.431Z,99425.75
2023-05-15T17:08:15.447Z,99422.16
2023-05-15T17:10:43.507Z,99426.75
2023-05-15T17:13:11.774Z,99417.41
2023-05-15T17:15:39.679Z,99417.34
2023-05-15T17:18:09.154Z,99414.00
2023-05-15T17:20:37.161Z,99413.06
2023-05-15T17:23:05.343Z,99409.38
2023-05-15T17:25:33.305Z,99411.44
2023-05-15T17:28:01.336Z,99410.22
2023-05-15T17:30:29.355Z,99409.00
2023-05-15T17:32:57.403Z,99418.66
2023-05-15T17:35:27.585Z,99425.59
2023-05-15T17:37:56.341Z,99427.66
2023-05-15T17:40:24.349Z,99429.44
2023-05-15T17:42:52.490Z,99434.41
2023-05-15T17:45:20.495Z,99427.75
2023-05-15T17:47:49.211Z,99423.84
2023-05-15T17:50:17.392Z,99427.59
2023-05-15T17:52:46.709Z,99427.53
2023-05-15T17:55:15.000Z,99426.84
2023-05-15T17:57:42.949Z,99429.53
2023-05-15T18:00:12.394Z,99426.72
2023-05-15T18:02:40.548Z,99424.16
2023-05-15T18:05:10.154Z,99419.44
2023-05-15T18:07:38.244Z,99421.03
2023-05-15T18:10:09.563Z,99414.38
2023-05-15T18:12:37.616Z,99420.81
2023-05-15T18:15:06.302Z,99413.88
2023-05-15T18:17:34.407Z,99413.72
2023-05-15T18:20:05.013Z,99410.09
2023-05-15T18:22:33.052Z,99408.91
2023-05-15T18:25:01.768Z,99405.88
2023-05-15T18:27:31.191Z,99409.91
2023-05-15T18:29:59.254Z,99408.84
2023-05-15T18:32:27.263Z,99412.41
2023-05-15T18:34:55.219Z,99417.84
2023-05-15T18:37:23.128Z,99431.25
2023-05-15T18:39:52.062Z,99438.84
2023-05-15T18:42:20.042Z,99431.75
2023-05-15T18:44:49.322Z,99427.59
2023-05-15T18:47:17.366Z,99436.59
2023-05-15T18:49:45.443Z,99434.38
2023-05-15T18:52:13.456Z,99437.69
2023-05-15T18:54:41.590Z,99453.97
2023-05-15T18:57:09.564Z,99451.31
2023-05-15T18:59:37.671Z,99445.38
2023-05-15T19:02:07.744Z,99444.31
2023-05-15T19:04:35.678Z,99438.59
2023-05-15T19:07:04.011Z,99437.84
2023-05-15T19:09:31.987Z,99427.19
2023-05-15T19:12:00.636Z,99427.44
2023-05-15T19:14:28.597Z,99429.16
2023-05-15T19:16:56.585Z,99423.19
2023-05-15T19:19:26.231Z,99418.47
2023-05-15T19:21:54.851Z,99417.38
2023-05-15T19:24:22.820Z,99417.78
2023-05-15T19:26:50.719Z,99422.13
2023-05-15T19:29:18.658Z,99423.78
2023-05-15T19:31:46.793Z,99420.63
2023-05-15T19:34:15.021Z,99428.81
2023-05-15T19:36:46.107Z,99432.56
2023-05-15T19:39:14.120Z,99435.44
2023-05-15T19:41:42.693Z,99441.13
2023-05-15T19:44:11.237Z,99441.06
2023-05-15T19:46:39.318Z,99430.41
2023-05-15T19:49:07.412Z,99428.50
2023-05-15T19:51:35.653Z,99426.25
2023-05-15T19:54:05.132Z,99428.00
2023-05-15T19:56:33.037Z,99439.69
2023-05-15T19:59:00.962Z,99441.34
2023-05-15T20:01:28.924Z,99436.06
2023-05-15T20:03:57.253Z,99445.56
2023-05-15T20:06:25.318Z,99443.31
2023-05-15T20:08:53.188Z,99437.25
2023-05-15T20:11:22.952Z,99440.81
2023-05-15T20:13:51.586Z,99443.66
2023-05-15T20:16:19.636Z,99440.50
2023-05-15T20:18:48.049Z,99431.91
2023-05-15T20:21:17.189Z,99429.09
2023-05-15T20:23:45.606Z,99434.72
2023-05-15T20:26:13.540Z,99435.19
2023-05-15T20:28:45.228Z,99434.06
2023-05-15T20:31:13.471Z,99444.13
2023-05-15T20:33:41.590Z,99432.63
2023-05-15T20:36:09.626Z,99426.25
2023-05-15T20:38:38.676Z,99422.28
2023-05-15T20:41:06.608Z,99415.28
2023-05-15T20:43:34.490Z,99411.81
2023-05-15T20:46:03.795Z,99406.06
2023-05-15T20:48:31.779Z,99411.59
2023-05-15T20:50:59.722Z,99412.59
2023-05-15T20:53:28.626Z,99418.91
2023-05-15T20:55:56.527Z,99421.00
2023-05-15T20:58:24.407Z,99427.44
2023-05-15T21:00:52.379Z,99430.88
2023-05-15T21:03:21.799Z,99417.94
2023-05-15T21:05:49.999Z,99410.16
2023-05-15T21:08:18.036Z,99396.09
2023-05-15T21:10:50.931Z,99398.25
2023-05-15T21:13:18.851Z,99396.97
2023-05-15T21:15:46.756Z,99386.91
2023-05-15T21:18:14.624Z,99387.97
2023-05-15T21:20:43.864Z,99372.50
2023-05-15T21:23:11.924Z,99361.13
2023-05-15T21:25:40.266Z,99362.44
2023-05-15T21:28:08.256Z,99362.16
2023-05-15T21:30:36.137Z,99358.50
2023-05-15T21:33:04.210Z,99372.78
2023-05-15T21:35:32.302Z,99373.38
2023-05-15T21:38:01.603Z,99361.19
2023-05-15T21:40:29.552Z,99354.09
2023-05-15T21:42:57.465Z,99368.75
2023-05-15T21:45:25.446Z,99367.94
2023-05-15T21:47:53.577Z,99383.44
2023-05-15T21:50:21.579Z,99391.28
2023-05-15T21:52:50.897Z,99382.41
2023-05-15T21:55:20.194Z,99368.66
2023-05-15T21:57:48.133Z,99365.31
2023-05-15T22:00:16.555Z,99363.38
2023-05-15T22:02:44.571Z,99361.81
2023-05-15T22:05:12.568Z,99363.19
2023-05-15T22:07:40.512Z,99350.66
2023-05-15T22:10:13.784Z,99354.81
2023-05-15T22:12:43.260Z,99355.63
2023-05-15T22:15:12.440Z,99343.81
2023-05-15T22:17:40.378Z,99343.22
2023-05-15T22:20:11.757Z,99341.00
2023-05-15T22:22:40.165Z,99349.66
2023-05-15T22:25:08.861Z,99333.13
2023-05-15T22:27:36.799Z,99334.38
2023-05-15T22:30:07.608Z,99329.31
2023-05-15T22:32:35.888Z,99331.38
2023-05-15T22:35:04.471Z,99324.28
2023-05-15T22:37:32.415Z,99310.72
2023-05-15T22:40:00.528Z,99316.06
2023-05-15T22:42:28.957Z,99313.50
2023-05-15T22:44:57.767Z,99304.91
2023-05-15T22:47:28.297Z,99302.06
2023-05-15T22:49:56.690Z,99301.50
2023-05-15T22:52:25.274Z,99315.00
2023-05-15T22:54:53.254Z,99316.78
2023-05-15T22:57:21.261Z,99309.69
2023-05-15T22:59:49.392Z,99316.78
2023-05-15T23:02:17.407Z,99311.81
2023-05-15T23:04:46.836Z,99311.94
2023-05-15T23:07:14.804Z,99312.41
2023-05-15T23:09:42.776Z,99317.63
2023-05-15T23:12:10.823Z,99316.34
2023-05-15T23:14:38.742Z,99307.81
2023-05-15T23:17:06.729Z,99305.69
2023-05-15T23:19:34.723Z,99300.72
2023-05-15T23:22:04.095Z,99268.56
2023-05-15T23:24:32.252Z,99291.72
2023-05-15T23:27:00.409Z,99296.09
2023-05-15T23:29:28.341Z,99291.16
2023-05-15T23:31:57.735Z,99283.56
2023-05-15T23:34:25.686Z,99283.69
2023-05-15T23:36:53.939Z,99264.91
2023-05-15T23:39:23.298Z,99265.59
2023-05-15T23:41:51.441Z,99267.59
2023-05-15T23:44:19.479Z,99260.22
2023-05-15T23:46:47.499Z,99262.31
2023-05-15T23:49:15.521Z,99260.31
2023-05-15T23:51:43.777Z,99256.66
2023-05-15T23:54:11.961Z,99260.78
2023-05-15T23:56:41.325Z,99268.50
2023-05-15T23:59:09.273Z,99281.44
